sensor_id;sensor_type;location;lat;lon;timestamp;temperature;humidity
54788;DHT22;59598;48.112;16.280;2023-03-14T00:01:51;6.70;1.00
54788;DHT22;59598;48.112;16.280;2023-03-14T00:04:23;6.60;1.00
54788;DHT22;59598;48.112;16.280;2023-03-14T00:06:58;6.60;1.00
54788;DHT22;59598;48.112;16.280;2023-03-14T00:09:32;6.70;1.00
54788;DHT22;59598;48.112;16.280;2023-03-14T00:12:06;6.70;1.00
54788;DHT22;59598;48.112;16.280;2023-03-14T00:14:38;6.60;1.00
54788;DHT22;59598;48.112;16.280;2023-03-14T00:17:16;6.60;1.00
54788;DHT22;59598;48.112;16.280;2023-03-14T00:19:47;6.60;1.00
54788;DHT22;59598;48.112;16.280;2023-03-14T00:22:21;6.60;1.00
54788;DHT22;59598;48.112;16.280;2023-03-14T00:24:53;6.40;1.00
54788;DHT22;59598;48.112;16.280;2023-03-14T00:27:24;6.30;1.00
54788;DHT22;59598;48.112;16.280;2023-03-14T00:29:59;6.10;1.00
54788;DHT22;59598;48.112;16.280;2023-03-14T00:32:31;6.00;1.00
54788;DHT22;59598;48.112;16.280;2023-03-14T00:35:05;6.00;1.00
54788;DHT22;59598;48.112;16.280;2023-03-14T00:37:37;5.80;1.00
54788;DHT22;59598;48.112;16.280;2023-03-14T00:40:11;5.90;1.00
54788;DHT22;59598;48.112;16.280;2023-03-14T00:42:43;5.90;1.00
54788;DHT22;59598;48.112;16.280;2023-03-14T00:45:15;5.80;1.00
54788;DHT22;59598;48.112;16.280;2023-03-14T00:47:46;5.70;1.00
54788;DHT22;59598;48.112;16.280;2023-03-14T00:50:23;5.70;1.00
54788;DHT22;59598;48.112;16.280;2023-03-14T00:52:57;5.60;1.00
54788;DHT22;59598;48.112;16.280;2023-03-14T00:55:29;5.60;1.00
54788;DHT22;59598;48.112;16.280;2023-03-14T00:58:01;5.50;1.00
54788;DHT22;59598;48.112;16.280;2023-03-14T01:00:35;5.50;8.40
54788;DHT22;59598;48.112;16.280;2023-03-14T01:03:08;5.40;5.20
54788;DHT22;59598;48.112;16.280;2023-03-14T01:05:43;5.40;20.90
54788;DHT22;59598;48.112;16.280;2023-03-14T01:08:17;5.40;29.30
54788;DHT22;59598;48.112;16.280;2023-03-14T01:10:48;5.30;46.10
54788;DHT22;59598;48.112;16.280;2023-03-14T01:13:30;5.30;94.60
54788;DHT22;59598;48.112;16.280;2023-03-14T01:16:09;5.30;66.00
54788;DHT22;59598;48.112;16.280;2023-03-14T01:18:43;5.30;99.90
54788;DHT22;59598;48.112;16.280;2023-03-14T01:21:22;5.40;99.90
54788;DHT22;59598;48.112;16.280;2023-03-14T01:23:59;5.40;95.00
54788;DHT22;59598;48.112;16.280;2023-03-14T01:26:35;5.40;87.00
54788;DHT22;59598;48.112;16.280;2023-03-14T01:29:08;5.40;86.80
54788;DHT22;59598;48.112;16.280;2023-03-14T01:31:39;5.40;98.80
54788;DHT22;59598;48.112;16.280;2023-03-14T01:34:14;5.40;99.90
54788;DHT22;59598;48.112;16.280;2023-03-14T01:36:45;5.40;99.90
54788;DHT22;59598;48.112;16.280;2023-03-14T01:39:18;5.40;99.90
54788;DHT22;59598;48.112;16.280;2023-03-14T01:41:49;5.40;99.90
54788;DHT22;59598;48.112;16.280;2023-03-14T01:44:25;5.40;99.90
54788;DHT22;59598;48.112;16.280;2023-03-14T01:47:20;5.40;99.90
54788;DHT22;59598;48.112;16.280;2023-03-14T01:50:05;5.40;99.90
54788;DHT22;59598;48.112;16.280;2023-03-14T01:52:46;5.40;99.90
54788;DHT22;59598;48.112;16.280;2023-03-14T01:55:24;5.30;99.90
54788;DHT22;59598;48.112;16.280;2023-03-14T01:58:03;5.30;99.90
54788;DHT22;59598;48.112;16.280;2023-03-14T02:00:38;5.40;99.90
54788;DHT22;59598;48.112;16.280;2023-03-14T02:03:16;5.30;99.90
54788;DHT22;59598;48.112;16.280;2023-03-14T02:05:56;5.30;99.90
54788;DHT22;59598;48.112;16.280;2023-03-14T02:08:31;5.30;99.90
54788;DHT22;59598;48.112;16.280;2023-03-14T02:11:02;5.20;99.90
54788;DHT22;59598;48.112;16.280;2023-03-14T02:13:35;5.20;99.90
54788;DHT22;59598;48.112;16.280;2023-03-14T02:16:06;5.20;99.90
54788;DHT22;59598;48.112;16.280;2023-03-14T02:18:42;5.20;99.90
54788;DHT22;59598;48.112;16.280;2023-03-14T02:24:20;5.20;99.90
54788;DHT22;59598;48.112;16.280;2023-03-14T02:27:07;5.20;99.90
54788;DHT22;59598;48.112;16.280;2023-03-14T02:29:58;5.20;99.90
54788;DHT22;59598;48.112;16.280;2023-03-14T02:32:38;5.20;99.90
54788;DHT22;59598;48.112;16.280;2023-03-14T02:35:15;5.20;99.90
54788;DHT22;59598;48.112;16.280;2023-03-14T02:38:17;5.20;99.90
54788;DHT22;59598;48.112;16.280;2023-03-14T02:40:51;5.30;99.90
54788;DHT22;59598;48.112;16.280;2023-03-14T02:43:23;5.40;99.90
54788;DHT22;59598;48.112;16.280;2023-03-14T02:46:00;5.40;93.60
54788;DHT22;59598;48.112;16.280;2023-03-14T02:48:49;5.40;99.90
54788;DHT22;59598;48.112;16.280;2023-03-14T02:51:26;5.30;99.90
54788;DHT22;59598;48.112;16.280;2023-03-14T02:54:06;5.20;98.00
54788;DHT22;59598;48.112;16.280;2023-03-14T02:56:38;5.30;79.90
54788;DHT22;59598;48.112;16.280;2023-03-14T02:59:10;5.10;95.40
54788;DHT22;59598;48.112;16.280;2023-03-14T03:02:00;5.00;99.90
54788;DHT22;59598;48.112;16.280;2023-03-14T03:04:34;5.00;99.90
54788;DHT22;59598;48.112;16.280;2023-03-14T03:07:05;5.20;99.90
54788;DHT22;59598;48.112;16.280;2023-03-14T03:09:40;5.20;99.90
54788;DHT22;59598;48.112;16.280;2023-03-14T03:12:11;5.20;99.90
54788;DHT22;59598;48.112;16.280;2023-03-14T03:14:46;5.20;99.90
54788;DHT22;59598;48.112;16.280;2023-03-14T03:17:18;5.30;99.90
54788;DHT22;59598;48.112;16.280;2023-03-14T03:19:49;5.40;99.90
54788;DHT22;59598;48.112;16.280;2023-03-14T03:22:26;5.40;94.90
54788;DHT22;59598;48.112;16.280;2023-03-14T03:25:00;5.60;68.00
54788;DHT22;59598;48.112;16.280;2023-03-14T03:27:35;5.70;18.80
54788;DHT22;59598;48.112;16.280;2023-03-14T03:30:08;5.80;1.00
54788;DHT22;59598;48.112;16.280;2023-03-14T03:32:45;5.80;1.00
54788;DHT22;59598;48.112;16.280;2023-03-14T03:35:17;5.70;1.00
54788;DHT22;59598;48.112;16.280;2023-03-14T03:37:54;5.90;1.00
54788;DHT22;59598;48.112;16.280;2023-03-14T03:40:26;6.00;1.00
54788;DHT22;59598;48.112;16.280;2023-03-14T03:43:00;6.00;1.00
54788;DHT22;59598;48.112;16.280;2023-03-14T03:45:34;6.10;1.00
54788;DHT22;59598;48.112;16.280;2023-03-14T03:48:08;6.10;1.00
54788;DHT22;59598;48.112;16.280;2023-03-14T03:50:46;6.10;1.00
54788;DHT22;59598;48.112;16.280;2023-03-14T03:53:18;6.10;1.00
54788;DHT22;59598;48.112;16.280;2023-03-14T03:55:53;6.00;1.00
54788;DHT22;59598;48.112;16.280;2023-03-14T03:58:25;5.90;1.00
54788;DHT22;59598;48.112;16.280;2023-03-14T04:01:02;5.80;1.00
54788;DHT22;59598;48.112;16.280;2023-03-14T04:03:33;5.80;1.00
54788;DHT22;59598;48.112;16.280;2023-03-14T04:06:09;5.80;1.00
54788;DHT22;59598;48.112;16.280;2023-03-14T04:08:48;5.90;1.00
54788;DHT22;59598;48.112;16.280;2023-03-14T04:11:19;5.90;1.00
54788;DHT22;59598;48.112;16.280;2023-03-14T04:13:54;6.00;1.00
54788;DHT22;59598;48.112;16.280;2023-03-14T04:16:28;6.20;1.00
54788;DHT22;59598;48.112;16.280;2023-03-14T04:19:01;6.20;1.00
54788;DHT22;59598;48.112;16.280;2023-03-14T04:21:34;6.30;1.00
54788;DHT22;59598;48.112;16.280;2023-03-14T04:24:11;6.20;1.00
54788;DHT22;59598;48.112;16.280;2023-03-14T04:26:44;6.10;1.00
54788;DHT22;59598;48.112;16.280;2023-03-14T04:29:23;6.10;1.00
54788;DHT22;59598;48.112;16.280;2023-03-14T04:31:57;6.00;1.00
54788;DHT22;59598;48.112;16.280;2023-03-14T04:34:31;6.00;1.00
54788;DHT22;59598;48.112;16.280;2023-03-14T04:37:05;6.20;1.00
54788;DHT22;59598;48.112;16.280;2023-03-14T04:39:39;6.30;1.00
54788;DHT22;59598;48.112;16.280;2023-03-14T04:42:13;6.70;1.00
54788;DHT22;59598;48.112;16.280;2023-03-14T04:44:44;7.30;1.00
54788;DHT22;59598;48.112;16.280;2023-03-14T04:47:20;7.90;1.00
54788;DHT22;59598;48.112;16.280;2023-03-14T04:49:51;8.30;1.00
54788;DHT22;59598;48.112;16.280;2023-03-14T04:52:27;8.40;1.00
54788;DHT22;59598;48.112;16.280;2023-03-14T04:55:06;8.40;1.00
54788;DHT22;59598;48.112;16.280;2023-03-14T04:57:37;8.10;1.00
54788;DHT22;59598;48.112;16.280;2023-03-14T05:00:09;7.90;1.00
54788;DHT22;59598;48.112;16.280;2023-03-14T05:02:41;7.70;1.00
54788;DHT22;59598;48.112;16.280;2023-03-14T05:05:13;7.70;1.00
54788;DHT22;59598;48.112;16.280;2023-03-14T05:07:45;7.60;1.00
54788;DHT22;59598;48.112;16.280;2023-03-14T05:10:17;7.60;1.00
54788;DHT22;59598;48.112;16.280;2023-03-14T05:12:49;7.70;1.00
54788;DHT22;59598;48.112;16.280;2023-03-14T05:15:20;7.80;1.00
54788;DHT22;59598;48.112;16.280;2023-03-14T05:17:52;7.90;1.00
54788;DHT22;59598;48.112;16.280;2023-03-14T05:20:25;8.00;1.00
54788;DHT22;59598;48.112;16.280;2023-03-14T05:23:02;8.20;1.00
54788;DHT22;59598;48.112;16.280;2023-03-14T05:25:35;8.20;1.00
54788;DHT22;59598;48.112;16.280;2023-03-14T05:28:14;8.20;1.00
54788;DHT22;59598;48.112;16.280;2023-03-14T05:30:47;8.10;1.00
54788;DHT22;59598;48.112;16.280;2023-03-14T05:33:22;8.00;1.00
54788;DHT22;59598;48.112;16.280;2023-03-14T05:35:53;8.00;1.00
54788;DHT22;59598;48.112;16.280;2023-03-14T05:38:27;7.90;1.00
54788;DHT22;59598;48.112;16.280;2023-03-14T05:41:01;7.90;1.00
54788;DHT22;59598;48.112;16.280;2023-03-14T05:43:34;7.70;1.00
54788;DHT22;59598;48.112;16.280;2023-03-14T05:46:06;7.70;1.00
54788;DHT22;59598;48.112;16.280;2023-03-14T05:48:37;7.60;1.00
54788;DHT22;59598;48.112;16.280;2023-03-14T05:51:09;7.60;1.00
54788;DHT22;59598;48.112;16.280;2023-03-14T05:53:46;7.50;1.00
54788;DHT22;59598;48.112;16.280;2023-03-14T05:56:17;7.50;1.00
54788;DHT22;59598;48.112;16.280;2023-03-14T05:58:51;7.50;1.00
54788;DHT22;59598;48.112;16.280;2023-03-14T06:01:25;7.60;1.00
54788;DHT22;59598;48.112;16.280;2023-03-14T06:03:56;7.60;1.00
54788;DHT22;59598;48.112;16.280;2023-03-14T06:06:28;7.70;1.00
54788;DHT22;59598;48.112;16.280;2023-03-14T06:08:59;7.80;1.00
54788;DHT22;59598;48.112;16.280;2023-03-14T06:11:35;7.90;1.00
54788;DHT22;59598;48.112;16.280;2023-03-14T06:14:09;8.10;1.00
54788;DHT22;59598;48.112;16.280;2023-03-14T06:16:44;8.20;1.00
54788;DHT22;59598;48.112;16.280;2023-03-14T06:19:16;8.30;1.00
54788;DHT22;59598;48.112;16.280;2023-03-14T06:21:48;8.20;1.00
54788;DHT22;59598;48.112;16.280;2023-03-14T06:24:24;8.20;1.00
54788;DHT22;59598;48.112;16.280;2023-03-14T06:26:56;8.10;1.00
54788;DHT22;59598;48.112;16.280;2023-03-14T06:29:27;8.00;1.00
54788;DHT22;59598;48.112;16.280;2023-03-14T06:32:05;8.00;1.00
54788;DHT22;59598;48.112;16.280;2023-03-14T06:34:42;8.00;1.00
54788;DHT22;59598;48.112;16.280;2023-03-14T06:37:19;8.20;1.00
54788;DHT22;59598;48.112;16.280;2023-03-14T06:39:54;8.30;1.00
54788;DHT22;59598;48.112;16.280;2023-03-14T06:42:26;8.40;1.00
54788;DHT22;59598;48.112;16.280;2023-03-14T06:45:00;8.40;1.00
54788;DHT22;59598;48.112;16.280;2023-03-14T06:47:34;8.40;1.00
54788;DHT22;59598;48.112;16.280;2023-03-14T06:50:11;8.40;1.00
54788;DHT22;59598;48.112;16.280;2023-03-14T06:52:46;8.60;1.00
54788;DHT22;59598;48.112;16.280;2023-03-14T06:55:18;8.70;1.00
54788;DHT22;59598;48.112;16.280;2023-03-14T06:57:51;8.80;1.00
54788;DHT22;59598;48.112;16.280;2023-03-14T07:00:23;8.90;1.00
54788;DHT22;59598;48.112;16.280;2023-03-14T07:02:58;9.00;1.00
54788;DHT22;59598;48.112;16.280;2023-03-14T07:05:29;9.10;1.00
54788;DHT22;59598;48.112;16.280;2023-03-14T07:08:12;9.30;1.00
54788;DHT22;59598;48.112;16.280;2023-03-14T07:10:59;9.40;1.00
54788;DHT22;59598;48.112;16.280;2023-03-14T07:13:37;9.50;1.00
54788;DHT22;59598;48.112;16.280;2023-03-14T07:16:12;9.50;1.00
54788;DHT22;59598;48.112;16.280;2023-03-14T07:18:47;9.50;1.00
54788;DHT22;59598;48.112;16.280;2023-03-14T07:21:22;9.70;1.00
54788;DHT22;59598;48.112;16.280;2023-03-14T07:23:54;10.00;1.00
54788;DHT22;59598;48.112;16.280;2023-03-14T07:26:26;10.60;1.00
54788;DHT22;59598;48.112;16.280;2023-03-14T07:28:57;11.00;1.00
54788;DHT22;59598;48.112;16.280;2023-03-14T07:31:29;11.70;1.00
54788;DHT22;59598;48.112;16.280;2023-03-14T07:34:01;12.20;1.00
54788;DHT22;59598;48.112;16.280;2023-03-14T07:36:32;12.60;1.00
54788;DHT22;59598;48.112;16.280;2023-03-14T07:39:04;12.90;1.00
54788;DHT22;59598;48.112;16.280;2023-03-14T07:41:38;13.20;1.00
54788;DHT22;59598;48.112;16.280;2023-03-14T07:44:12;13.20;1.00
54788;DHT22;59598;48.112;16.280;2023-03-14T07:46:43;13.40;1.00
54788;DHT22;59598;48.112;16.280;2023-03-14T07:49:14;13.30;1.00
54788;DHT22;59598;48.112;16.280;2023-03-14T07:51:49;12.80;1.00
54788;DHT22;59598;48.112;16.280;2023-03-14T07:54:23;12.50;1.00
54788;DHT22;59598;48.112;16.280;2023-03-14T07:56:55;12.70;1.00
54788;DHT22;59598;48.112;16.280;2023-03-14T07:59:31;12.80;1.00
54788;DHT22;59598;48.112;16.280;2023-03-14T08:02:12;13.00;1.00
54788;DHT22;59598;48.112;16.280;2023-03-14T08:04:44;13.10;1.00
54788;DHT22;59598;48.112;16.280;2023-03-14T08:07:15;13.10;1.00
54788;DHT22;59598;48.112;16.280;2023-03-14T08:09:47;13.20;1.00
54788;DHT22;59598;48.112;16.280;2023-03-14T08:12:21;13.30;1.00
54788;DHT22;59598;48.112;16.280;2023-03-14T08:14:55;13.30;1.00
54788;DHT22;59598;48.112;16.280;2023-03-14T08:17:29;13.30;1.00
54788;DHT22;59598;48.112;16.280;2023-03-14T08:20:06;13.30;1.00
54788;DHT22;59598;48.112;16.280;2023-03-14T08:22:39;13.20;1.00
54788;DHT22;59598;48.112;16.280;2023-03-14T08:25:11;13.20;1.00
54788;DHT22;59598;48.112;16.280;2023-03-14T08:27:45;13.20;1.00
54788;DHT22;59598;48.112;16.280;2023-03-14T08:30:21;13.30;1.00
54788;DHT22;59598;48.112;16.280;2023-03-14T08:32:56;13.30;1.00
54788;DHT22;59598;48.112;16.280;2023-03-14T08:35:36;13.10;1.00
54788;DHT22;59598;48.112;16.280;2023-03-14T08:38:08;12.80;1.00
54788;DHT22;59598;48.112;16.280;2023-03-14T08:40:43;12.60;1.00
54788;DHT22;59598;48.112;16.280;2023-03-14T08:43:14;12.60;1.00
54788;DHT22;59598;48.112;16.280;2023-03-14T08:45:50;12.70;1.00
54788;DHT22;59598;48.112;16.280;2023-03-14T08:48:25;12.70;1.00
54788;DHT22;59598;48.112;16.280;2023-03-14T08:51:08;12.70;1.00
54788;DHT22;59598;48.112;16.280;2023-03-14T08:53:42;12.80;1.00
54788;DHT22;59598;48.112;16.280;2023-03-14T08:56:13;13.10;1.00
54788;DHT22;59598;48.112;16.280;2023-03-14T08:58:44;13.20;1.00
54788;DHT22;59598;48.112;16.280;2023-03-14T09:01:16;13.30;1.00
54788;DHT22;59598;48.112;16.280;2023-03-14T09:03:49;13.40;1.00
54788;DHT22;59598;48.112;16.280;2023-03-14T09:06:22;13.50;1.00
54788;DHT22;59598;48.112;16.280;2023-03-14T09:08:53;13.60;1.00
54788;DHT22;59598;48.112;16.280;2023-03-14T09:11:28;13.60;1.00
54788;DHT22;59598;48.112;16.280;2023-03-14T09:13:59;13.70;1.00
54788;DHT22;59598;48.112;16.280;2023-03-14T09:16:33;13.70;1.00
54788;DHT22;59598;48.112;16.280;2023-03-14T09:19:07;13.80;1.00
54788;DHT22;59598;48.112;16.280;2023-03-14T09:21:38;13.80;1.00
54788;DHT22;59598;48.112;16.280;2023-03-14T09:24:10;13.80;1.00
54788;DHT22;59598;48.112;16.280;2023-03-14T09:26:41;13.80;1.00
54788;DHT22;59598;48.112;16.280;2023-03-14T09:29:13;13.80;1.00
54788;DHT22;59598;48.112;16.280;2023-03-14T09:31:44;13.70;1.00
54788;DHT22;59598;48.112;16.280;2023-03-14T09:34:16;13.70;99.90
54788;DHT22;59598;48.112;16.280;2023-03-14T09:36:50;13.60;1.00
54788;DHT22;59598;48.112;16.280;2023-03-14T09:39:22;13.50;1.00
54788;DHT22;59598;48.112;16.280;2023-03-14T09:41:54;13.50;1.00
54788;DHT22;59598;48.112;16.280;2023-03-14T09:44:34;13.40;1.00
54788;DHT22;59598;48.112;16.280;2023-03-14T09:47:12;13.40;1.00
54788;DHT22;59598;48.112;16.280;2023-03-14T09:49:45;13.40;1.00
54788;DHT22;59598;48.112;16.280;2023-03-14T09:54:58;13.50;99.90
54788;DHT22;59598;48.112;16.280;2023-03-14T09:57:35;13.50;1.00
54788;DHT22;59598;48.112;16.280;2023-03-14T10:00:19;13.60;99.90
54788;DHT22;59598;48.112;16.280;2023-03-14T10:03:09;13.80;99.90
54788;DHT22;59598;48.112;16.280;2023-03-14T10:05:52;13.90;99.90
54788;DHT22;59598;48.112;16.280;2023-03-14T10:08:26;13.90;99.90
54788;DHT22;59598;48.112;16.280;2023-03-14T10:10:58;14.00;1.00
54788;DHT22;59598;48.112;16.280;2023-03-14T10:13:33;13.90;1.00
54788;DHT22;59598;48.112;16.280;2023-03-14T10:16:05;14.10;1.00
54788;DHT22;59598;48.112;16.280;2023-03-14T10:18:45;14.30;1.00
54788;DHT22;59598;48.112;16.280;2023-03-14T10:21:28;14.10;1.00
54788;DHT22;59598;48.112;16.280;2023-03-14T10:24:22;13.90;1.00
54788;DHT22;59598;48.112;16.280;2023-03-14T10:27:02;13.80;1.00
54788;DHT22;59598;48.112;16.280;2023-03-14T10:29:55;13.80;1.00
54788;DHT22;59598;48.112;16.280;2023-03-14T10:32:39;13.80;99.90
54788;DHT22;59598;48.112;16.280;2023-03-14T10:37:58;14.00;99.90
54788;DHT22;59598;48.112;16.280;2023-03-14T10:40:40;14.00;99.90
54788;DHT22;59598;48.112;16.280;2023-03-14T10:43:16;13.90;99.90
54788;DHT22;59598;48.112;16.280;2023-03-14T10:46:14;13.70;99.90
54788;DHT22;59598;48.112;16.280;2023-03-14T10:48:47;13.30;99.90
54788;DHT22;59598;48.112;16.280;2023-03-14T10:51:26;13.00;99.90
54788;DHT22;59598;48.112;16.280;2023-03-14T10:54:02;12.90;99.90
54788;DHT22;59598;48.112;16.280;2023-03-14T10:56:43;12.70;37.40
54788;DHT22;59598;48.112;16.280;2023-03-14T10:59:15;12.70;1.00
54788;DHT22;59598;48.112;16.280;2023-03-14T11:07:36;12.50;1.00
54788;DHT22;59598;48.112;16.280;2023-03-14T11:10:26;12.20;1.00
54788;DHT22;59598;48.112;16.280;2023-03-14T11:14:00;12.20;1.00
54788;DHT22;59598;48.112;16.280;2023-03-14T11:16:51;12.30;1.00
54788;DHT22;59598;48.112;16.280;2023-03-14T11:23:01;12.50;1.00
54788;DHT22;59598;48.112;16.280;2023-03-14T11:28:14;12.60;1.00
54788;DHT22;59598;48.112;16.280;2023-03-14T11:31:19;12.50;1.00
54788;DHT22;59598;48.112;16.280;2023-03-14T11:34:19;12.50;1.00
54788;DHT22;59598;48.112;16.280;2023-03-14T11:37:16;12.50;1.00
54788;DHT22;59598;48.112;16.280;2023-03-14T11:40:22;12.40;1.00
54788;DHT22;59598;48.112;16.280;2023-03-14T11:45:42;12.30;1.00
54788;DHT22;59598;48.112;16.280;2023-03-14T11:48:16;12.20;1.00
54788;DHT22;59598;48.112;16.280;2023-03-14T11:50:53;12.20;1.00
54788;DHT22;59598;48.112;16.280;2023-03-14T11:53:50;12.10;1.00
54788;DHT22;59598;48.112;16.280;2023-03-14T11:56:39;12.10;1.00
54788;DHT22;59598;48.112;16.280;2023-03-14T11:59:32;12.00;1.00
54788;DHT22;59598;48.112;16.280;2023-03-14T12:02:21;11.90;1.00
54788;DHT22;59598;48.112;16.280;2023-03-14T12:10:59;11.80;99.90
54788;DHT22;59598;48.112;16.280;2023-03-14T12:13:47;11.80;99.90
54788;DHT22;59598;48.112;16.280;2023-03-14T12:18:57;11.90;99.90
54788;DHT22;59598;48.112;16.280;2023-03-14T12:21:51;11.80;1.00
54788;DHT22;59598;48.112;16.280;2023-03-14T12:24:31;11.70;99.90
54788;DHT22;59598;48.112;16.280;2023-03-14T12:27:10;11.80;99.90
54788;DHT22;59598;48.112;16.280;2023-03-14T12:30:00;11.70;99.90
54788;DHT22;59598;48.112;16.280;2023-03-14T12:32:34;11.60;99.90
54788;DHT22;59598;48.112;16.280;2023-03-14T12:35:38;11.60;1.00
54788;DHT22;59598;48.112;16.280;2023-03-14T12:41:29;11.60;99.90
54788;DHT22;59598;48.112;16.280;2023-03-14T12:49:51;11.70;99.90
54788;DHT22;59598;48.112;16.280;2023-03-14T12:52:40;11.80;99.90
54788;DHT22;59598;48.112;16.280;2023-03-14T12:55:33;11.90;99.90
54788;DHT22;59598;48.112;16.280;2023-03-14T12:58:28;12.00;99.90
54788;DHT22;59598;48.112;16.280;2023-03-14T13:01:16;12.00;99.90
54788;DHT22;59598;48.112;16.280;2023-03-14T13:03:57;12.00;99.90
54788;DHT22;59598;48.112;16.280;2023-03-14T13:06:48;11.90;99.90
54788;DHT22;59598;48.112;16.280;2023-03-14T13:12:11;11.70;99.90
54788;DHT22;59598;48.112;16.280;2023-03-14T13:14:49;11.70;99.90
54788;DHT22;59598;48.112;16.280;2023-03-14T13:17:30;11.70;99.90
54788;DHT22;59598;48.112;16.280;2023-03-14T13:20:15;11.60;99.90
54788;DHT22;59598;48.112;16.280;2023-03-14T13:22:52;11.60;99.90
54788;DHT22;59598;48.112;16.280;2023-03-14T13:25:31;11.50;99.90
54788;DHT22;59598;48.112;16.280;2023-03-14T13:28:10;11.50;99.90
54788;DHT22;59598;48.112;16.280;2023-03-14T13:30:58;11.40;99.90
54788;DHT22;59598;48.112;16.280;2023-03-14T13:33:33;11.40;99.90
54788;DHT22;59598;48.112;16.280;2023-03-14T13:36:08;11.30;99.90
54788;DHT22;59598;48.112;16.280;2023-03-14T13:38:43;11.40;99.90
54788;DHT22;59598;48.112;16.280;2023-03-14T13:41:15;11.40;99.90
54788;DHT22;59598;48.112;16.280;2023-03-14T13:43:46;11.40;99.90
54788;DHT22;59598;48.112;16.280;2023-03-14T13:46:23;11.40;99.90
54788;DHT22;59598;48.112;16.280;2023-03-14T13:49:01;11.40;1.00
54788;DHT22;59598;48.112;16.280;2023-03-14T13:51:38;11.30;99.90
54788;DHT22;59598;48.112;16.280;2023-03-14T13:54:18;11.30;99.90
54788;DHT22;59598;48.112;16.280;2023-03-14T13:57:04;11.20;99.90
54788;DHT22;59598;48.112;16.280;2023-03-14T13:59:39;11.20;1.00
54788;DHT22;59598;48.112;16.280;2023-03-14T14:02:13;11.20;1.00
54788;DHT22;59598;48.112;16.280;2023-03-14T14:04:46;11.10;1.00
54788;DHT22;59598;48.112;16.280;2023-03-14T14:07:18;10.90;1.00
54788;DHT22;59598;48.112;16.280;2023-03-14T14:09:52;10.60;96.00
54788;DHT22;59598;48.112;16.280;2023-03-14T14:12:31;10.60;19.80
54788;DHT22;59598;48.112;16.280;2023-03-14T14:15:11;10.60;39.10
54788;DHT22;59598;48.112;16.280;2023-03-14T14:17:53;10.70;1.00
54788;DHT22;59598;48.112;16.280;2023-03-14T14:20:34;10.80;1.00
54788;DHT22;59598;48.112;16.280;2023-03-14T14:23:11;10.90;1.00
54788;DHT22;59598;48.112;16.280;2023-03-14T14:25:46;11.10;1.00
54788;DHT22;59598;48.112;16.280;2023-03-14T14:28:35;11.30;1.00
54788;DHT22;59598;48.112;16.280;2023-03-14T14:36:30;11.60;1.00
54788;DHT22;59598;48.112;16.280;2023-03-14T14:39:20;11.60;99.90
54788;DHT22;59598;48.112;16.280;2023-03-14T14:41:58;11.70;99.90
54788;DHT22;59598;48.112;16.280;2023-03-14T14:44:33;11.80;99.90
54788;DHT22;59598;48.112;16.280;2023-03-14T14:47:15;11.80;99.90
54788;DHT22;59598;48.112;16.280;2023-03-14T14:49:53;11.80;24.40
54788;DHT22;59598;48.112;16.280;2023-03-14T14:52:42;11.80;1.00
54788;DHT22;59598;48.112;16.280;2023-03-14T14:55:18;11.70;1.00
54788;DHT22;59598;48.112;16.280;2023-03-14T14:57:55;11.70;1.00
54788;DHT22;59598;48.112;16.280;2023-03-14T15:00:31;11.70;1.00
54788;DHT22;59598;48.112;16.280;2023-03-14T15:03:13;11.80;1.00
54788;DHT22;59598;48.112;16.280;2023-03-14T15:05:49;11.80;48.30
54788;DHT22;59598;48.112;16.280;2023-03-14T15:08:27;11.80;99.90
54788;DHT22;59598;48.112;16.280;2023-03-14T15:11:04;11.80;99.90
54788;DHT22;59598;48.112;16.280;2023-03-14T15:13:36;11.70;99.90
54788;DHT22;59598;48.112;16.280;2023-03-14T15:16:11;11.60;99.90
54788;DHT22;59598;48.112;16.280;2023-03-14T15:18:43;11.60;99.90
54788;DHT22;59598;48.112;16.280;2023-03-14T15:21:20;11.50;99.90
54788;DHT22;59598;48.112;16.280;2023-03-14T15:23:55;11.50;1.00
54788;DHT22;59598;48.112;16.280;2023-03-14T15:26:27;11.30;1.00
54788;DHT22;59598;48.112;16.280;2023-03-14T15:29:02;11.30;1.00
54788;DHT22;59598;48.112;16.280;2023-03-14T15:31:40;11.20;1.00
54788;DHT22;59598;48.112;16.280;2023-03-14T15:34:14;11.20;1.00
54788;DHT22;59598;48.112;16.280;2023-03-14T15:36:51;11.20;1.00
54788;DHT22;59598;48.112;16.280;2023-03-14T15:39:22;11.10;99.90
54788;DHT22;59598;48.112;16.280;2023-03-14T15:41:54;11.10;1.00
54788;DHT22;59598;48.112;16.280;2023-03-14T15:44:25;11.10;99.90
54788;DHT22;59598;48.112;16.280;2023-03-14T15:46:57;11.10;55.50
54788;DHT22;59598;48.112;16.280;2023-03-14T15:49:28;11.00;99.90
54788;DHT22;59598;48.112;16.280;2023-03-14T15:52:00;11.00;99.90
54788;DHT22;59598;48.112;16.280;2023-03-14T15:54:34;11.00;99.90
54788;DHT22;59598;48.112;16.280;2023-03-14T15:57:10;10.90;99.90
54788;DHT22;59598;48.112;16.280;2023-03-14T15:59:42;10.90;99.90
54788;DHT22;59598;48.112;16.280;2023-03-14T16:02:16;10.90;99.90
54788;DHT22;59598;48.112;16.280;2023-03-14T16:04:50;10.80;99.90
54788;DHT22;59598;48.112;16.280;2023-03-14T16:07:24;10.80;99.90
54788;DHT22;59598;48.112;16.280;2023-03-14T16:09:55;10.70;99.90
54788;DHT22;59598;48.112;16.280;2023-03-14T16:12:27;10.70;99.90
54788;DHT22;59598;48.112;16.280;2023-03-14T16:15:01;10.60;1.00
54788;DHT22;59598;48.112;16.280;2023-03-14T16:17:32;10.50;1.00
54788;DHT22;59598;48.112;16.280;2023-03-14T16:20:05;10.50;1.00
54788;DHT22;59598;48.112;16.280;2023-03-14T16:22:37;10.50;1.00
54788;DHT22;59598;48.112;16.280;2023-03-14T16:25:09;10.60;1.00
54788;DHT22;59598;48.112;16.280;2023-03-14T16:27:41;10.60;1.00
54788;DHT22;59598;48.112;16.280;2023-03-14T16:30:14;10.60;1.00
54788;DHT22;59598;48.112;16.280;2023-03-14T16:32:46;10.60;1.00
54788;DHT22;59598;48.112;16.280;2023-03-14T16:35:20;10.40;1.00
54788;DHT22;59598;48.112;16.280;2023-03-14T16:37:52;10.30;1.00
54788;DHT22;59598;48.112;16.280;2023-03-14T16:40:26;10.20;1.00
54788;DHT22;59598;48.112;16.280;2023-03-14T16:42:58;10.20;1.00
54788;DHT22;59598;48.112;16.280;2023-03-14T16:45:36;10.20;1.00
54788;DHT22;59598;48.112;16.280;2023-03-14T16:48:09;10.20;1.00
54788;DHT22;59598;48.112;16.280;2023-03-14T16:50:41;10.20;1.00
54788;DHT22;59598;48.112;16.280;2023-03-14T16:53:13;10.10;1.00
54788;DHT22;59598;48.112;16.280;2023-03-14T16:55:51;10.10;1.00
54788;DHT22;59598;48.112;16.280;2023-03-14T16:58:23;10.10;1.00
54788;DHT22;59598;48.112;16.280;2023-03-14T17:01:06;10.00;1.00
54788;DHT22;59598;48.112;16.280;2023-03-14T17:03:43;10.00;1.00
54788;DHT22;59598;48.112;16.280;2023-03-14T17:06:22;9.90;1.00
54788;DHT22;59598;48.112;16.280;2023-03-14T17:08:58;9.90;1.00
54788;DHT22;59598;48.112;16.280;2023-03-14T17:11:30;9.90;1.00
54788;DHT22;59598;48.112;16.280;2023-03-14T17:14:08;9.80;1.00
54788;DHT22;59598;48.112;16.280;2023-03-14T17:16:41;9.80;1.00
54788;DHT22;59598;48.112;16.280;2023-03-14T17:19:14;9.70;1.00